createdAt,value
2022-11-02T00:01:30.177Z,27.90
2022-11-02T00:06:31.307Z,28.20
2022-11-02T00:11:32.773Z,27.40
2022-11-02T00:16:38.241Z,27.70
2022-11-02T00:21:39.899Z,25.80
2022-11-02T00:26:41.155Z,26.70
2022-11-02T00:31:42.208Z,27.70
2022-11-02T00:36:43.263Z,28.50
2022-11-02T00:41:44.325Z,27.00
2022-11-02T00:46:45.421Z,28.70
2022-11-02T00:51:46.565Z,24.80
2022-11-02T00:56:47.699Z,26.20
2022-11-02T01:01:49.077Z,24.90
2022-11-02T01:06:50.204Z,22.50
2022-11-02T01:11:52.137Z,22.50
2022-11-02T01:16:53.329Z,21.50
2022-11-02T01:21:54.371Z,22.30
2022-11-02T01:26:55.512Z,22.30
2022-11-02T01:31:56.514Z,21.00
2022-11-02T01:36:58.271Z,20.30
2022-11-02T01:41:59.277Z,19.20
2022-11-02T01:47:18.565Z,20.30
2022-11-02T01:52:25.472Z,20.00
2022-11-02T01:57:28.074Z,20.20
2022-11-02T02:02:29.276Z,19.20
2022-11-02T02:07:33.167Z,19.70
2022-11-02T02:12:36.766Z,18.60
2022-11-02T02:18:01.598Z,18.80
2022-11-02T02:23:03.674Z,18.50
2022-11-02T02:28:04.952Z,19.30
2022-11-02T02:33:35.876Z,17.30
2022-11-02T02:39:02.799Z,18.40
2022-11-02T02:44:07.328Z,17.30
2022-11-02T02:49:13.656Z,16.70
2022-11-02T02:54:21.850Z,16.70
2022-11-02T02:59:28.878Z,15.20
2022-11-02T03:04:30.110Z,16.00
2022-11-02T03:09:37.680Z,17.30
2022-11-02T03:14:58.492Z,17.60
2022-11-02T03:20:18.870Z,17.20
2022-11-02T03:25:34.732Z,18.90
2022-11-02T03:30:43.934Z,16.10
2022-11-02T03:36:12.234Z,17.50
2022-11-02T03:41:15.335Z,16.20
2022-11-02T03:46:18.144Z,14.80
2022-11-02T03:51:22.877Z,15.90
2022-11-02T03:56:48.223Z,15.80
2022-11-02T04:01:51.271Z,15.30
2022-11-02T04:06:53.091Z,15.40
2022-11-02T04:12:12.787Z,14.20
2022-11-02T04:22:51.698Z,15.10
2022-11-02T04:27:52.957Z,14.90
2022-11-02T04:33:12.559Z,14.80
2022-11-02T04:38:32.199Z,14.30
2022-11-02T04:43:33.220Z,14.90
2022-11-02T04:48:34.264Z,14.60
2022-11-02T04:53:35.412Z,15.00
2022-11-02T04:58:36.456Z,14.30
2022-11-02T05:03:37.495Z,14.40
2022-11-02T05:08:38.733Z,11.80
2022-11-02T05:13:41.137Z,13.10
2022-11-02T05:18:43.289Z,15.00
2022-11-02T05:23:44.738Z,14.20
2022-11-02T05:28:45.944Z,14.90
2022-11-02T05:33:47.157Z,15.00
2022-11-02T05:38:53.038Z,14.70
2022-11-02T05:43:54.048Z,14.30
2022-11-02T05:58:57.205Z,15.00
2022-11-02T06:03:58.504Z,16.50
2022-11-02T06:09:04.249Z,17.40
2022-11-02T06:14:08.320Z,16.50
2022-11-02T06:19:10.704Z,15.90
2022-11-02T06:24:11.857Z,16.40
2022-11-02T06:29:12.885Z,17.00
2022-11-02T06:34:14.214Z,16.40
2022-11-02T06:39:15.509Z,16.30
2022-11-02T06:44:16.748Z,15.30
2022-11-02T06:49:18.217Z,16.80
2022-11-02T06:54:19.452Z,15.60
2022-11-02T06:59:20.553Z,15.90
2022-11-02T07:04:21.919Z,15.50
2022-11-02T07:09:22.975Z,15.50
2022-11-02T07:14:24.467Z,14.10
2022-11-02T07:19:25.626Z,14.90
2022-11-02T07:24:26.856Z,15.30
2022-11-02T07:29:28.228Z,13.00
2022-11-02T07:34:29.350Z,14.50
2022-11-02T07:39:30.977Z,14.40
2022-11-02T07:44:32.319Z,13.70
2022-11-02T07:49:33.326Z,13.70
2022-11-02T07:54:34.400Z,15.20
2022-11-02T07:59:35.767Z,15.00
2022-11-02T08:04:39.499Z,14.30
2022-11-02T08:09:43.437Z,12.70
2022-11-02T08:14:45.853Z,13.60
2022-11-02T08:19:46.923Z,12.40
2022-11-02T08:24:48.031Z,13.00
2022-11-02T08:29:49.168Z,13.20
2022-11-02T08:34:50.240Z,14.40
2022-11-02T08:39:51.264Z,15.50
2022-11-02T08:44:53.272Z,12.60
2022-11-02T08:49:54.593Z,12.40
2022-11-02T08:54:58.561Z,12.20
2022-11-02T09:00:00.202Z,11.60
2022-11-02T09:05:01.733Z,11.50
2022-11-02T09:10:03.812Z,12.50
2022-11-02T09:15:06.081Z,12.50
2022-11-02T09:20:10.542Z,12.30
2022-11-02T09:25:13.389Z,12.80
2022-11-02T09:30:14.459Z,12.50
2022-11-02T09:35:15.516Z,18.70
2022-11-02T09:40:21.069Z,17.20
2022-11-02T09:45:22.734Z,16.30
2022-11-02T09:50:28.781Z,10.70
2022-11-02T09:55:35.802Z,12.70
2022-11-02T10:00:40.020Z,12.90
2022-11-02T10:05:49.450Z,12.30
2022-11-02T10:11:02.956Z,12.00
2022-11-02T10:16:20.317Z,13.30
2022-11-02T10:21:34.975Z,10.70
2022-11-02T10:26:36.799Z,12.80
2022-11-02T10:31:37.873Z,8.00
2022-11-02T10:37:16.814Z,10.20
2022-11-02T10:42:36.975Z,10.80
2022-11-02T10:47:57.322Z,15.50
2022-11-02T10:53:27.190Z,14.10
2022-11-02T10:58:27.262Z,11.30
2022-11-02T11:03:28.395Z,13.30
2022-11-02T11:08:37.287Z,13.40
2022-11-02T11:24:27.808Z,12.40
2022-11-02T11:29:39.647Z,14.10
2022-11-02T11:34:43.063Z,13.70
2022-11-02T11:39:53.885Z,13.60
2022-11-02T11:45:00.715Z,11.30
2022-11-02T11:50:09.548Z,14.50
2022-11-02T11:55:25.214Z,15.80
2022-11-02T12:00:28.059Z,15.20
2022-11-02T12:05:29.680Z,11.00
2022-11-02T12:10:38.365Z,11.30
2022-11-02T12:15:59.816Z,11.30
2022-11-02T12:21:07.671Z,11.20
2022-11-02T12:26:31.105Z,13.50
2022-11-02T12:31:37.628Z,15.00
2022-11-02T12:37:40.380Z,20.20
2022-11-02T12:43:21.683Z,16.40
2022-11-02T12:48:42.554Z,12.50
2022-11-02T12:54:00.720Z,11.30
2022-11-02T12:59:02.969Z,11.10
2022-11-02T13:04:28.139Z,13.90
2022-11-02T13:09:40.342Z,13.00
2022-11-02T13:14:46.330Z,12.60
2022-11-02T13:19:53.010Z,16.30
2022-11-02T13:25:05.494Z,9.10
2022-11-02T13:30:15.206Z,12.40
2022-11-02T13:35:40.218Z,13.60
2022-11-02T13:40:47.271Z,9.30
2022-11-02T13:45:58.916Z,9.10
2022-11-02T13:51:12.857Z,7.10
2022-11-02T13:56:23.094Z,8.10
2022-11-02T14:01:25.763Z,8.10
2022-11-02T14:06:27.209Z,8.00
2022-11-02T14:11:38.554Z,8.30
2022-11-02T14:16:42.756Z,9.90
2022-11-02T14:21:49.856Z,10.00
2022-11-02T14:26:56.535Z,11.30
2022-11-02T14:32:04.298Z,12.20
2022-11-02T14:37:46.840Z,15.70
2022-11-02T14:43:09.921Z,15.00
2022-11-02T14:48:15.993Z,10.80
2022-11-02T14:53:26.483Z,10.30
2022-11-02T14:58:38.912Z,11.30
2022-11-02T15:03:41.920Z,11.80
2022-11-02T15:09:03.443Z,16.40
2022-11-02T15:14:44.082Z,10.60
2022-11-02T15:19:51.166Z,11.10
2022-11-02T15:24:56.039Z,11.10
2022-11-02T15:29:58.888Z,9.50
2022-11-02T15:35:00.823Z,11.50
2022-11-02T15:40:09.048Z,11.70
2022-11-02T15:45:50.492Z,11.90
2022-11-02T15:51:18.179Z,23.60
2022-11-02T15:56:39.798Z,19.00
2022-11-02T16:01:42.168Z,14.30
2022-11-02T16:06:45.412Z,11.80
2022-11-02T16:12:18.597Z,12.50
2022-11-02T16:17:28.153Z,17.80
2022-11-02T16:22:30.950Z,14.10
2022-11-02T16:27:37.414Z,12.10
2022-11-02T16:32:38.520Z,12.30
2022-11-02T16:37:40.192Z,15.30
2022-11-02T16:42:45.262Z,10.50
2022-11-02T16:47:46.655Z,9.90
2022-11-02T16:52:56.883Z,11.10
2022-11-02T16:58:00.687Z,7.30
2022-11-02T17:03:13.942Z,9.00
2022-11-02T17:08:35.802Z,9.00
2022-11-02T17:13:54.915Z,9.70
2022-11-02T17:19:02.620Z,9.20
2022-11-02T17:24:30.411Z,8.80
2022-11-02T17:29:31.519Z,8.90
2022-11-02T17:34:35.383Z,8.90
2022-11-02T17:39:38.456Z,9.60
2022-11-02T17:44:40.863Z,9.30
2022-11-02T17:49:43.176Z,9.80
2022-11-02T17:54:45.602Z,9.80
2022-11-02T17:59:46.776Z,10.00
2022-11-02T18:04:47.969Z,9.20
2022-11-02T18:09:49.124Z,12.70
2022-11-02T18:14:50.262Z,22.40
2022-11-02T18:19:51.266Z,18.30
2022-11-02T18:29:53.773Z,16.10
2022-11-02T18:34:54.837Z,10.40
2022-11-02T18:39:56.118Z,11.10
2022-11-02T18:44:57.827Z,10.30
2022-11-02T18:49:59.935Z,8.80
2022-11-02T18:55:04.499Z,9.70
2022-11-02T19:00:06.873Z,9.60
2022-11-02T19:05:28.119Z,8.70
2022-11-02T19:10:30.234Z,8.60
2022-11-02T19:15:36.314Z,7.30
2022-11-02T19:20:40.886Z,8.80
2022-11-02T19:30:49.169Z,7.20
2022-11-02T19:35:55.152Z,7.50
2022-11-02T19:41:04.639Z,7.00
2022-11-02T19:46:07.922Z,7.50
2022-11-02T19:51:15.970Z,7.80
2022-11-02T20:01:26.548Z,6.70
2022-11-02T20:06:32.378Z,6.70
2022-11-02T20:11:35.398Z,6.10
2022-11-02T20:16:37.693Z,6.70
2022-11-02T20:21:42.943Z,7.30
2022-11-02T20:26:44.512Z,11.60
2022-11-02T20:36:47.118Z,8.00
2022-11-02T20:41:55.051Z,6.60
2022-11-02T20:46:56.075Z,7.30
2022-11-02T20:56:58.531Z,7.60
2022-11-02T21:01:59.640Z,7.90
2022-11-02T21:07:01.924Z,6.10
2022-11-02T21:12:22.312Z,6.80
2022-11-02T21:17:23.369Z,6.30
2022-11-02T21:27:26.801Z,6.20
2022-11-02T21:32:27.820Z,5.60
2022-11-02T21:52:37.878Z,5.90
2022-11-02T21:57:40.997Z,5.50
2022-11-02T22:02:42.044Z,5.60
2022-11-02T22:13:24.863Z,5.00
2022-11-02T22:18:25.885Z,4.80
2022-11-02T22:28:33.236Z,3.80
2022-11-02T22:33:35.185Z,4.50
2022-11-02T22:38:55.059Z,4.40
2022-11-02T22:44:22.550Z,3.90
2022-11-02T22:49:23.589Z,4.00
2022-11-02T22:59:25.574Z,4.30
2022-11-02T23:09:27.718Z,4.10
2022-11-02T23:14:29.079Z,4.70
2022-11-02T23:24:50.485Z,3.90
2022-11-02T23:30:10.457Z,3.40
2022-11-02T23:35:30.651Z,4.10
2022-11-02T23:40:32.536Z,4.00
2022-11-02T23:45:34.020Z,3.40
2022-11-02T23:50:54.456Z,3.90
2022-11-02T23:56:15.013Z,3.10
